sensor_id;sensor_type;location;lat;lon;timestamp;P1;durP1;ratioP1;P2;durP2;ratioP2
25581;SDS011;13462;50.764;4.332;2024-02-28T00:00:03;37.65;;;19.20;;
25581;SDS011;13462;50.764;4.332;2024-02-28T00:02:30;31.63;;;17.20;;
25581;SDS011;13462;50.764;4.332;2024-02-28T00:04:55;39.08;;;18.23;;
25581;SDS011;13462;50.764;4.332;2024-02-28T00:07:24;40.40;;;17.55;;
25581;SDS011;13462;50.764;4.332;2024-02-28T00:09:49;34.28;;;17.35;;
25581;SDS011;13462;50.764;4.332;2024-02-28T00:12:15;35.53;;;17.65;;
25581;SDS011;13462;50.764;4.332;2024-02-28T00:14:41;29.73;;;16.10;;
25581;SDS011;13462;50.764;4.332;2024-02-28T00:17:06;28.17;;;15.85;;
25581;SDS011;13462;50.764;4.332;2024-02-28T00:19:32;36.15;;;16.67;;
25581;SDS011;13462;50.764;4.332;2024-02-28T00:21:58;32.85;;;16.05;;
25581;SDS011;13462;50.764;4.332;2024-02-28T00:24:25;34.03;;;16.27;;
25581;SDS011;13462;50.764;4.332;2024-02-28T00:26:50;35.00;;;17.85;;
25581;SDS011;13462;50.764;4.332;2024-02-28T00:29:16;32.03;;;16.88;;
25581;SDS011;13462;50.764;4.332;2024-02-28T00:31:42;37.40;;;16.63;;
25581;SDS011;13462;50.764;4.332;2024-02-28T00:34:07;29.15;;;15.15;;
25581;SDS011;13462;50.764;4.332;2024-02-28T00:36:33;34.50;;;16.77;;
25581;SDS011;13462;50.764;4.332;2024-02-28T00:38:59;36.50;;;17.35;;
25581;SDS011;13462;50.764;4.332;2024-02-28T00:41:25;32.35;;;15.43;;
25581;SDS011;13462;50.764;4.332;2024-02-28T00:43:50;26.38;;;15.85;;
25581;SDS011;13462;50.764;4.332;2024-02-28T00:46:16;28.25;;;14.55;;
25581;SDS011;13462;50.764;4.332;2024-02-28T00:48:41;26.30;;;13.98;;
25581;SDS011;13462;50.764;4.332;2024-02-28T00:51:07;31.33;;;13.73;;
25581;SDS011;13462;50.764;4.332;2024-02-28T00:53:33;26.20;;;14.27;;
25581;SDS011;13462;50.764;4.332;2024-02-28T00:55:59;27.83;;;13.32;;
25581;SDS011;13462;50.764;4.332;2024-02-28T00:58:25;26.77;;;13.40;;
25581;SDS011;13462;50.764;4.332;2024-02-28T01:00:52;30.45;;;14.05;;
25581;SDS011;13462;50.764;4.332;2024-02-28T01:03:18;26.92;;;14.13;;
25581;SDS011;13462;50.764;4.332;2024-02-28T01:05:44;24.25;;;13.13;;
25581;SDS011;13462;50.764;4.332;2024-02-28T01:08:09;28.73;;;12.43;;
25581;SDS011;13462;50.764;4.332;2024-02-28T01:10:35;33.22;;;13.98;;
25581;SDS011;13462;50.764;4.332;2024-02-28T01:13:01;26.42;;;14.65;;
25581;SDS011;13462;50.764;4.332;2024-02-28T01:15:27;25.85;;;13.57;;
25581;SDS011;13462;50.764;4.332;2024-02-28T01:17:53;24.52;;;12.93;;
25581;SDS011;13462;50.764;4.332;2024-02-28T01:20:18;27.33;;;13.35;;
25581;SDS011;13462;50.764;4.332;2024-02-28T01:22:44;26.52;;;12.68;;
25581;SDS011;13462;50.764;4.332;2024-02-28T01:25:09;23.95;;;13.00;;
25581;SDS011;13462;50.764;4.332;2024-02-28T01:27:35;24.35;;;11.80;;
25581;SDS011;13462;50.764;4.332;2024-02-28T01:30:01;31.02;;;12.15;;
25581;SDS011;13462;50.764;4.332;2024-02-28T01:32:29;24.80;;;12.18;;
25581;SDS011;13462;50.764;4.332;2024-02-28T01:34:55;27.20;;;13.68;;
25581;SDS011;13462;50.764;4.332;2024-02-28T01:37:20;26.60;;;14.50;;
25581;SDS011;13462;50.764;4.332;2024-02-28T01:39:46;28.23;;;13.77;;
25581;SDS011;13462;50.764;4.332;2024-02-28T01:42:11;30.45;;;14.45;;
25581;SDS011;13462;50.764;4.332;2024-02-28T01:44:41;24.70;;;12.60;;
25581;SDS011;13462;50.764;4.332;2024-02-28T01:47:10;29.17;;;13.48;;
25581;SDS011;13462;50.764;4.332;2024-02-28T01:49:36;28.48;;;13.90;;
25581;SDS011;13462;50.764;4.332;2024-02-28T01:52:02;28.52;;;12.52;;
25581;SDS011;13462;50.764;4.332;2024-02-28T01:54:28;25.25;;;13.63;;
25581;SDS011;13462;50.764;4.332;2024-02-28T01:56:55;26.70;;;13.52;;
25581;SDS011;13462;50.764;4.332;2024-02-28T01:59:21;28.15;;;12.68;;
25581;SDS011;13462;50.764;4.332;2024-02-28T02:01:49;38.72;;;14.32;;
25581;SDS011;13462;50.764;4.332;2024-02-28T02:04:15;28.17;;;14.23;;
25581;SDS011;13462;50.764;4.332;2024-02-28T02:06:42;30.40;;;14.65;;
25581;SDS011;13462;50.764;4.332;2024-02-28T02:09:08;25.27;;;12.77;;
25581;SDS011;13462;50.764;4.332;2024-02-28T02:11:34;38.35;;;14.48;;
25581;SDS011;13462;50.764;4.332;2024-02-28T02:14:00;33.30;;;14.82;;
25581;SDS011;13462;50.764;4.332;2024-02-28T02:16:26;36.00;;;15.20;;
25581;SDS011;13462;50.764;4.332;2024-02-28T02:18:51;32.30;;;14.60;;
25581;SDS011;13462;50.764;4.332;2024-02-28T02:21:18;36.72;;;17.45;;
25581;SDS011;13462;50.764;4.332;2024-02-28T02:23:47;38.90;;;17.20;;
25581;SDS011;13462;50.764;4.332;2024-02-28T02:26:13;38.03;;;16.17;;
25581;SDS011;13462;50.764;4.332;2024-02-28T02:28:39;40.97;;;18.98;;
25581;SDS011;13462;50.764;4.332;2024-02-28T02:31:04;45.90;;;19.70;;
25581;SDS011;13462;50.764;4.332;2024-02-28T02:33:30;42.95;;;17.88;;
25581;SDS011;13462;50.764;4.332;2024-02-28T02:35:55;38.58;;;16.83;;
25581;SDS011;13462;50.764;4.332;2024-02-28T02:38:21;34.97;;;16.83;;
25581;SDS011;13462;50.764;4.332;2024-02-28T02:40:50;39.08;;;17.75;;
25581;SDS011;13462;50.764;4.332;2024-02-28T02:43:16;44.28;;;17.80;;
25581;SDS011;13462;50.764;4.332;2024-02-28T02:45:42;45.53;;;17.75;;
25581;SDS011;13462;50.764;4.332;2024-02-28T02:48:08;40.92;;;17.63;;
25581;SDS011;13462;50.764;4.332;2024-02-28T02:50:34;38.38;;;18.17;;
25581;SDS011;13462;50.764;4.332;2024-02-28T02:53:00;45.30;;;18.77;;
25581;SDS011;13462;50.764;4.332;2024-02-28T02:55:26;39.97;;;18.60;;
25581;SDS011;13462;50.764;4.332;2024-02-28T02:57:51;42.42;;;18.80;;
25581;SDS011;13462;50.764;4.332;2024-02-28T03:00:17;44.88;;;19.27;;
25581;SDS011;13462;50.764;4.332;2024-02-28T03:02:42;37.13;;;17.42;;
25581;SDS011;13462;50.764;4.332;2024-02-28T03:05:08;39.92;;;16.58;;
25581;SDS011;13462;50.764;4.332;2024-02-28T03:07:34;34.33;;;16.60;;
25581;SDS011;13462;50.764;4.332;2024-02-28T03:10:00;44.05;;;18.08;;
25581;SDS011;13462;50.764;4.332;2024-02-28T03:12:25;41.97;;;17.70;;
25581;SDS011;13462;50.764;4.332;2024-02-28T03:14:51;37.42;;;17.15;;
25581;SDS011;13462;50.764;4.332;2024-02-28T03:17:16;38.03;;;17.58;;
25581;SDS011;13462;50.764;4.332;2024-02-28T03:19:42;36.85;;;17.08;;
25581;SDS011;13462;50.764;4.332;2024-02-28T03:22:08;45.13;;;18.50;;
25581;SDS011;13462;50.764;4.332;2024-02-28T03:24:33;38.22;;;17.15;;
25581;SDS011;13462;50.764;4.332;2024-02-28T03:27:02;37.97;;;16.98;;
25581;SDS011;13462;50.764;4.332;2024-02-28T03:29:28;37.95;;;17.33;;
25581;SDS011;13462;50.764;4.332;2024-02-28T03:31:53;37.33;;;16.88;;
25581;SDS011;13462;50.764;4.332;2024-02-28T03:34:19;40.25;;;16.67;;
25581;SDS011;13462;50.764;4.332;2024-02-28T03:36:45;43.90;;;16.88;;
25581;SDS011;13462;50.764;4.332;2024-02-28T03:39:11;41.15;;;16.52;;
25581;SDS011;13462;50.764;4.332;2024-02-28T03:41:37;40.08;;;17.42;;
25581;SDS011;13462;50.764;4.332;2024-02-28T03:44:03;42.50;;;19.15;;
25581;SDS011;13462;50.764;4.332;2024-02-28T03:46:29;42.67;;;17.85;;
25581;SDS011;13462;50.764;4.332;2024-02-28T03:48:54;43.10;;;18.23;;
25581;SDS011;13462;50.764;4.332;2024-02-28T03:51:20;43.28;;;19.25;;
25581;SDS011;13462;50.764;4.332;2024-02-28T03:53:46;42.47;;;18.20;;
25581;SDS011;13462;50.764;4.332;2024-02-28T03:56:12;48.80;;;19.33;;
25581;SDS011;13462;50.764;4.332;2024-02-28T03:58:37;48.38;;;19.63;;
25581;SDS011;13462;50.764;4.332;2024-02-28T04:01:04;47.80;;;19.58;;
25581;SDS011;13462;50.764;4.332;2024-02-28T04:03:30;40.30;;;19.10;;
25581;SDS011;13462;50.764;4.332;2024-02-28T04:05:56;48.17;;;19.85;;
25581;SDS011;13462;50.764;4.332;2024-02-28T04:08:22;47.33;;;19.05;;
25581;SDS011;13462;50.764;4.332;2024-02-28T04:10:47;48.88;;;19.90;;
25581;SDS011;13462;50.764;4.332;2024-02-28T04:13:15;48.97;;;19.75;;
25581;SDS011;13462;50.764;4.332;2024-02-28T04:15:40;46.47;;;19.55;;
25581;SDS011;13462;50.764;4.332;2024-02-28T04:18:06;51.45;;;20.05;;
25581;SDS011;13462;50.764;4.332;2024-02-28T04:20:32;51.13;;;21.35;;
25581;SDS011;13462;50.764;4.332;2024-02-28T04:22:57;40.40;;;19.15;;
25581;SDS011;13462;50.764;4.332;2024-02-28T04:25:23;58.80;;;20.75;;
25581;SDS011;13462;50.764;4.332;2024-02-28T04:27:49;50.90;;;21.38;;
25581;SDS011;13462;50.764;4.332;2024-02-28T04:30:14;48.70;;;20.67;;
25581;SDS011;13462;50.764;4.332;2024-02-28T04:32:40;49.10;;;20.05;;
25581;SDS011;13462;50.764;4.332;2024-02-28T04:35:06;62.10;;;24.00;;
25581;SDS011;13462;50.764;4.332;2024-02-28T04:37:32;51.10;;;22.17;;
25581;SDS011;13462;50.764;4.332;2024-02-28T04:39:59;69.57;;;24.48;;
25581;SDS011;13462;50.764;4.332;2024-02-28T04:42:25;61.58;;;24.23;;
25581;SDS011;13462;50.764;4.332;2024-02-28T04:44:51;57.63;;;22.45;;
25581;SDS011;13462;50.764;4.332;2024-02-28T04:47:17;58.65;;;24.38;;
25581;SDS011;13462;50.764;4.332;2024-02-28T04:49:42;60.03;;;23.77;;
25581;SDS011;13462;50.764;4.332;2024-02-28T04:52:08;69.53;;;25.25;;
25581;SDS011;13462;50.764;4.332;2024-02-28T04:54:33;62.00;;;26.05;;
25581;SDS011;13462;50.764;4.332;2024-02-28T04:56:59;68.40;;;26.17;;
25581;SDS011;13462;50.764;4.332;2024-02-28T04:59:25;66.95;;;27.30;;
25581;SDS011;13462;50.764;4.332;2024-02-28T05:01:50;60.17;;;27.60;;
25581;SDS011;13462;50.764;4.332;2024-02-28T05:04:17;66.70;;;29.58;;
25581;SDS011;13462;50.764;4.332;2024-02-28T05:06:42;76.20;;;30.85;;
25581;SDS011;13462;50.764;4.332;2024-02-28T05:09:08;74.93;;;30.40;;
25581;SDS011;13462;50.764;4.332;2024-02-28T05:11:34;69.00;;;29.88;;
25581;SDS011;13462;50.764;4.332;2024-02-28T05:13:59;72.65;;;30.23;;
25581;SDS011;13462;50.764;4.332;2024-02-28T05:16:25;69.65;;;29.90;;
25581;SDS011;13462;50.764;4.332;2024-02-28T05:18:51;65.68;;;27.98;;
25581;SDS011;13462;50.764;4.332;2024-02-28T05:21:16;71.50;;;28.92;;
25581;SDS011;13462;50.764;4.332;2024-02-28T05:23:42;70.22;;;30.00;;
25581;SDS011;13462;50.764;4.332;2024-02-28T05:26:08;64.00;;;29.05;;
25581;SDS011;13462;50.764;4.332;2024-02-28T05:28:34;69.65;;;29.25;;
25581;SDS011;13462;50.764;4.332;2024-02-28T05:31:03;64.57;;;27.73;;
25581;SDS011;13462;50.764;4.332;2024-02-28T05:33:51;58.92;;;24.80;;
25581;SDS011;13462;50.764;4.332;2024-02-28T05:36:24;64.25;;;27.50;;
25581;SDS011;13462;50.764;4.332;2024-02-28T05:38:54;61.15;;;27.50;;
25581;SDS011;13462;50.764;4.332;2024-02-28T05:41:21;67.63;;;25.95;;
25581;SDS011;13462;50.764;4.332;2024-02-28T05:43:47;67.00;;;25.40;;
25581;SDS011;13462;50.764;4.332;2024-02-28T05:46:13;62.20;;;26.85;;
25581;SDS011;13462;50.764;4.332;2024-02-28T05:48:43;60.08;;;23.25;;
25581;SDS011;13462;50.764;4.332;2024-02-28T05:51:10;55.70;;;22.83;;
25581;SDS011;13462;50.764;4.332;2024-02-28T05:53:36;62.03;;;23.05;;
25581;SDS011;13462;50.764;4.332;2024-02-28T05:56:03;54.88;;;22.00;;
25581;SDS011;13462;50.764;4.332;2024-02-28T05:58:29;54.80;;;21.73;;
25581;SDS011;13462;50.764;4.332;2024-02-28T06:00:55;58.92;;;23.20;;
25581;SDS011;13462;50.764;4.332;2024-02-28T06:03:21;58.92;;;21.98;;
25581;SDS011;13462;50.764;4.332;2024-02-28T06:05:47;50.90;;;22.23;;
25581;SDS011;13462;50.764;4.332;2024-02-28T06:08:13;63.22;;;22.52;;
25581;SDS011;13462;50.764;4.332;2024-02-28T06:10:39;58.67;;;23.48;;
25581;SDS011;13462;50.764;4.332;2024-02-28T06:13:07;60.75;;;24.70;;
25581;SDS011;13462;50.764;4.332;2024-02-28T06:15:33;61.75;;;25.77;;
25581;SDS011;13462;50.764;4.332;2024-02-28T06:17:58;61.05;;;26.02;;
25581;SDS011;13462;50.764;4.332;2024-02-28T06:20:25;64.40;;;24.08;;
25581;SDS011;13462;50.764;4.332;2024-02-28T06:22:51;54.50;;;23.40;;
25581;SDS011;13462;50.764;4.332;2024-02-28T06:25:17;63.33;;;23.02;;
25581;SDS011;13462;50.764;4.332;2024-02-28T06:27:44;53.67;;;23.92;;
25581;SDS011;13462;50.764;4.332;2024-02-28T06:30:11;63.85;;;23.70;;
25581;SDS011;13462;50.764;4.332;2024-02-28T06:32:40;61.28;;;23.67;;
25581;SDS011;13462;50.764;4.332;2024-02-28T06:35:06;55.65;;;24.17;;
25581;SDS011;13462;50.764;4.332;2024-02-28T06:37:32;45.67;;;20.70;;
25581;SDS011;13462;50.764;4.332;2024-02-28T06:39:58;57.08;;;24.20;;
25581;SDS011;13462;50.764;4.332;2024-02-28T06:42:24;63.15;;;22.65;;
25581;SDS011;13462;50.764;4.332;2024-02-28T06:44:50;52.97;;;23.02;;
25581;SDS011;13462;50.764;4.332;2024-02-28T06:47:15;54.35;;;22.55;;
25581;SDS011;13462;50.764;4.332;2024-02-28T06:49:41;55.65;;;22.27;;
25581;SDS011;13462;50.764;4.332;2024-02-28T06:52:07;58.03;;;22.65;;
25581;SDS011;13462;50.764;4.332;2024-02-28T06:54:32;50.75;;;23.30;;
25581;SDS011;13462;50.764;4.332;2024-02-28T06:56:58;56.38;;;21.30;;
25581;SDS011;13462;50.764;4.332;2024-02-28T06:59:23;54.13;;;21.83;;
25581;SDS011;13462;50.764;4.332;2024-02-28T07:01:49;49.90;;;21.48;;
25581;SDS011;13462;50.764;4.332;2024-02-28T07:04:15;46.05;;;21.00;;
25581;SDS011;13462;50.764;4.332;2024-02-28T07:06:40;49.40;;;21.33;;
25581;SDS011;13462;50.764;4.332;2024-02-28T07:09:09;45.85;;;20.65;;
25581;SDS011;13462;50.764;4.332;2024-02-28T07:11:34;50.72;;;20.42;;
25581;SDS011;13462;50.764;4.332;2024-02-28T07:14:00;49.85;;;22.60;;
25581;SDS011;13462;50.764;4.332;2024-02-28T07:16:29;53.70;;;21.05;;
25581;SDS011;13462;50.764;4.332;2024-02-28T07:18:55;52.10;;;20.67;;
25581;SDS011;13462;50.764;4.332;2024-02-28T07:21:21;48.58;;;20.65;;
25581;SDS011;13462;50.764;4.332;2024-02-28T07:23:46;47.88;;;19.67;;
25581;SDS011;13462;50.764;4.332;2024-02-28T07:26:15;54.15;;;22.40;;
25581;SDS011;13462;50.764;4.332;2024-02-28T07:28:41;51.05;;;22.02;;
25581;SDS011;13462;50.764;4.332;2024-02-28T07:31:07;53.67;;;22.17;;
25581;SDS011;13462;50.764;4.332;2024-02-28T07:33:40;43.55;;;20.85;;
25581;SDS011;13462;50.764;4.332;2024-02-28T07:36:05;47.15;;;21.45;;
25581;SDS011;13462;50.764;4.332;2024-02-28T07:38:31;50.25;;;22.35;;
25581;SDS011;13462;50.764;4.332;2024-02-28T07:40:57;56.85;;;23.27;;
25581;SDS011;13462;50.764;4.332;2024-02-28T07:43:23;48.97;;;22.08;;
25581;SDS011;13462;50.764;4.332;2024-02-28T07:45:49;57.05;;;23.25;;
25581;SDS011;13462;50.764;4.332;2024-02-28T07:48:14;52.78;;;22.58;;
25581;SDS011;13462;50.764;4.332;2024-02-28T07:50:42;41.03;;;21.58;;
25581;SDS011;13462;50.764;4.332;2024-02-28T07:53:12;41.50;;;21.40;;
25581;SDS011;13462;50.764;4.332;2024-02-28T07:55:38;45.55;;;20.48;;
25581;SDS011;13462;50.764;4.332;2024-02-28T07:58:04;44.08;;;19.50;;
25581;SDS011;13462;50.764;4.332;2024-02-28T08:00:31;39.08;;;19.75;;
25581;SDS011;13462;50.764;4.332;2024-02-28T08:02:58;41.30;;;20.10;;
25581;SDS011;13462;50.764;4.332;2024-02-28T08:05:24;42.78;;;18.98;;
25581;SDS011;13462;50.764;4.332;2024-02-28T08:07:49;43.17;;;17.83;;
25581;SDS011;13462;50.764;4.332;2024-02-28T08:10:15;42.15;;;18.02;;
25581;SDS011;13462;50.764;4.332;2024-02-28T08:12:41;40.88;;;19.55;;
25581;SDS011;13462;50.764;4.332;2024-02-28T08:15:07;43.38;;;19.17;;
25581;SDS011;13462;50.764;4.332;2024-02-28T08:17:32;42.22;;;18.60;;
25581;SDS011;13462;50.764;4.332;2024-02-28T08:19:58;47.08;;;19.73;;
25581;SDS011;13462;50.764;4.332;2024-02-28T08:22:24;55.42;;;20.55;;
25581;SDS011;13462;50.764;4.332;2024-02-28T08:24:53;39.00;;;18.58;;
25581;SDS011;13462;50.764;4.332;2024-02-28T08:27:19;42.30;;;19.00;;
25581;SDS011;13462;50.764;4.332;2024-02-28T08:29:45;49.53;;;21.35;;
25581;SDS011;13462;50.764;4.332;2024-02-28T08:32:12;38.10;;;17.25;;
25581;SDS011;13462;50.764;4.332;2024-02-28T08:34:38;42.70;;;19.83;;
25581;SDS011;13462;50.764;4.332;2024-02-28T08:37:04;40.70;;;17.77;;
25581;SDS011;13462;50.764;4.332;2024-02-28T08:39:29;46.08;;;18.60;;
25581;SDS011;13462;50.764;4.332;2024-02-28T08:41:55;36.05;;;16.95;;
25581;SDS011;13462;50.764;4.332;2024-02-28T08:44:20;37.50;;;17.98;;
25581;SDS011;13462;50.764;4.332;2024-02-28T08:46:47;41.15;;;17.27;;
25581;SDS011;13462;50.764;4.332;2024-02-28T08:49:13;40.85;;;16.17;;
25581;SDS011;13462;50.764;4.332;2024-02-28T08:51:39;47.67;;;17.58;;
25581;SDS011;13462;50.764;4.332;2024-02-28T08:54:05;38.42;;;15.45;;
25581;SDS011;13462;50.764;4.332;2024-02-28T08:56:31;39.28;;;17.33;;
25581;SDS011;13462;50.764;4.332;2024-02-28T08:58:57;47.78;;;17.95;;
25581;SDS011;13462;50.764;4.332;2024-02-28T09:01:22;43.67;;;15.93;;
25581;SDS011;13462;50.764;4.332;2024-02-28T09:03:48;39.70;;;15.43;;
25581;SDS011;13462;50.764;4.332;2024-02-28T09:06:14;43.15;;;16.55;;
25581;SDS011;13462;50.764;4.332;2024-02-28T09:08:39;43.58;;;15.63;;
25581;SDS011;13462;50.764;4.332;2024-02-28T09:11:05;43.58;;;15.25;;
25581;SDS011;13462;50.764;4.332;2024-02-28T09:13:31;35.70;;;14.30;;
25581;SDS011;13462;50.764;4.332;2024-02-28T09:15:57;35.58;;;15.15;;
25581;SDS011;13462;50.764;4.332;2024-02-28T09:18:22;35.03;;;14.23;;
25581;SDS011;13462;50.764;4.332;2024-02-28T09:20:48;35.28;;;14.40;;
25581;SDS011;13462;50.764;4.332;2024-02-28T09:23:14;36.63;;;13.57;;
25581;SDS011;13462;50.764;4.332;2024-02-28T09:25:39;32.75;;;14.27;;
25581;SDS011;13462;50.764;4.332;2024-02-28T09:28:05;33.70;;;13.25;;
25581;SDS011;13462;50.764;4.332;2024-02-28T09:30:31;30.50;;;15.02;;
25581;SDS011;13462;50.764;4.332;2024-02-28T09:32:56;31.83;;;14.48;;
25581;SDS011;13462;50.764;4.332;2024-02-28T09:35:22;36.10;;;13.40;;
25581;SDS011;13462;50.764;4.332;2024-02-28T09:37:48;29.00;;;13.35;;
25581;SDS011;13462;50.764;4.332;2024-02-28T09:40:13;36.72;;;15.18;;
25581;SDS011;13462;50.764;4.332;2024-02-28T09:42:39;30.05;;;13.90;;
25581;SDS011;13462;50.764;4.332;2024-02-28T09:45:05;34.17;;;14.93;;
25581;SDS011;13462;50.764;4.332;2024-02-28T09:47:35;36.42;;;14.50;;
25581;SDS011;13462;50.764;4.332;2024-02-28T09:50:00;28.88;;;12.82;;
25581;SDS011;13462;50.764;4.332;2024-02-28T09:52:27;28.67;;;13.43;;
25581;SDS011;13462;50.764;4.332;2024-02-28T09:54:53;30.67;;;13.77;;
25581;SDS011;13462;50.764;4.332;2024-02-28T09:57:19;28.80;;;13.93;;
25581;SDS011;13462;50.764;4.332;2024-02-28T09:59:45;31.58;;;13.52;;
25581;SDS011;13462;50.764;4.332;2024-02-28T10:02:12;25.17;;;12.95;;
25581;SDS011;13462;50.764;4.332;2024-02-28T10:04:42;33.20;;;13.65;;
25581;SDS011;13462;50.764;4.332;2024-02-28T10:07:11;32.97;;;14.77;;
25581;SDS011;13462;50.764;4.332;2024-02-28T10:09:38;31.73;;;16.83;;
25581;SDS011;13462;50.764;4.332;2024-02-28T10:12:04;32.00;;;14.82;;
25581;SDS011;13462;50.764;4.332;2024-02-28T10:14:30;34.05;;;16.48;;
25581;SDS011;13462;50.764;4.332;2024-02-28T10:16:56;32.53;;;15.80;;
25581;SDS011;13462;50.764;4.332;2024-02-28T10:19:21;34.10;;;16.30;;
25581;SDS011;13462;50.764;4.332;2024-02-28T10:21:47;35.25;;;17.02;;
25581;SDS011;13462;50.764;4.332;2024-02-28T10:24:12;33.08;;;17.50;;
25581;SDS011;13462;50.764;4.332;2024-02-28T10:26:45;30.98;;;15.90;;
25581;SDS011;13462;50.764;4.332;2024-02-28T10:29:20;31.83;;;15.85;;
25581;SDS011;13462;50.764;4.332;2024-02-28T10:31:46;27.05;;;13.93;;
25581;SDS011;13462;50.764;4.332;2024-02-28T10:34:12;27.40;;;14.25;;
25581;SDS011;13462;50.764;4.332;2024-02-28T10:36:41;34.40;;;14.05;;
25581;SDS011;13462;50.764;4.332;2024-02-28T10:39:08;28.80;;;12.85;;
25581;SDS011;13462;50.764;4.332;2024-02-28T10:41:35;25.70;;;13.40;;
25581;SDS011;13462;50.764;4.332;2024-02-28T10:44:03;21.63;;;10.77;;
25581;SDS011;13462;50.764;4.332;2024-02-28T10:46:29;23.67;;;11.73;;
25581;SDS011;13462;50.764;4.332;2024-02-28T10:48:56;21.52;;;11.63;;
25581;SDS011;13462;50.764;4.332;2024-02-28T10:51:25;21.15;;;11.30;;
25581;SDS011;13462;50.764;4.332;2024-02-28T10:54:08;18.30;;;10.45;;
25581;SDS011;13462;50.764;4.332;2024-02-28T10:56:35;26.60;;;12.18;;
25581;SDS011;13462;50.764;4.332;2024-02-28T10:59:00;20.95;;;10.23;;
25581;SDS011;13462;50.764;4.332;2024-02-28T11:01:26;13.57;;;9.35;;
25581;SDS011;13462;50.764;4.332;2024-02-28T11:03:53;16.10;;;9.00;;
25581;SDS011;13462;50.764;4.332;2024-02-28T11:06:19;12.70;;;8.15;;
25581;SDS011;13462;50.764;4.332;2024-02-28T11:08:49;17.08;;;8.30;;
25581;SDS011;13462;50.764;4.332;2024-02-28T11:11:19;16.95;;;7.85;;
25581;SDS011;13462;50.764;4.332;2024-02-28T11:13:55;12.88;;;7.97;;
25581;SDS011;13462;50.764;4.332;2024-02-28T11:16:29;11.48;;;6.15;;
25581;SDS011;13462;50.764;4.332;2024-02-28T11:18:55;11.43;;;6.68;;
25581;SDS011;13462;50.764;4.332;2024-02-28T11:21:28;13.27;;;7.78;;
25581;SDS011;13462;50.764;4.332;2024-02-28T11:23:58;14.80;;;7.82;;
25581;SDS011;13462;50.764;4.332;2024-02-28T11:26:24;16.40;;;7.65;;
25581;SDS011;13462;50.764;4.332;2024-02-28T11:28:51;12.82;;;7.25;;
25581;SDS011;13462;50.764;4.332;2024-02-28T11:31:16;13.75;;;6.95;;
25581;SDS011;13462;50.764;4.332;2024-02-28T11:33:43;11.45;;;6.55;;
25581;SDS011;13462;50.764;4.332;2024-02-28T11:36:11;12.98;;;7.32;;
25581;SDS011;13462;50.764;4.332;2024-02-28T11:38:38;13.48;;;7.05;;
25581;SDS011;13462;50.764;4.332;2024-02-28T11:41:04;13.50;;;6.50;;
25581;SDS011;13462;50.764;4.332;2024-02-28T11:43:33;10.00;;;6.47;;
25581;SDS011;13462;50.764;4.332;2024-02-28T11:46:00;10.57;;;5.82;;
25581;SDS011;13462;50.764;4.332;2024-02-28T11:48:26;11.25;;;6.80;;
25581;SDS011;13462;50.764;4.332;2024-02-28T11:50:56;12.20;;;7.68;;
25581;SDS011;13462;50.764;4.332;2024-02-28T11:53:22;13.60;;;8.40;;
25581;SDS011;13462;50.764;4.332;2024-02-28T11:55:51;14.05;;;8.13;;
25581;SDS011;13462;50.764;4.332;2024-02-28T11:58:17;15.30;;;8.13;;
25581;SDS011;13462;50.764;4.332;2024-02-28T12:00:47;24.95;;;8.70;;
25581;SDS011;13462;50.764;4.332;2024-02-28T12:03:25;12.20;;;8.07;;
25581;SDS011;13462;50.764;4.332;2024-02-28T12:05:52;15.10;;;8.90;;
25581;SDS011;13462;50.764;4.332;2024-02-28T12:08:18;15.65;;;7.68;;
25581;SDS011;13462;50.764;4.332;2024-02-28T12:10:45;15.27;;;8.00;;
25581;SDS011;13462;50.764;4.332;2024-02-28T12:13:15;14.45;;;8.00;;
25581;SDS011;13462;50.764;4.332;2024-02-28T12:15:44;18.58;;;8.27;;
25581;SDS011;13462;50.764;4.332;2024-02-28T12:18:16;17.02;;;7.65;;
25581;SDS011;13462;50.764;4.332;2024-02-28T12:20:42;15.55;;;7.65;;
25581;SDS011;13462;50.764;4.332;2024-02-28T12:23:08;14.82;;;8.27;;
25581;SDS011;13462;50.764;4.332;2024-02-28T12:25:34;12.57;;;7.22;;
25581;SDS011;13462;50.764;4.332;2024-02-28T12:28:00;16.65;;;8.05;;
25581;SDS011;13462;50.764;4.332;2024-02-28T12:30:26;14.40;;;7.60;;
25581;SDS011;13462;50.764;4.332;2024-02-28T12:32:52;11.68;;;7.07;;
25581;SDS011;13462;50.764;4.332;2024-02-28T12:35:17;12.88;;;8.30;;
25581;SDS011;13462;50.764;4.332;2024-02-28T12:37:43;12.00;;;7.07;;
25581;SDS011;13462;50.764;4.332;2024-02-28T12:40:09;14.82;;;8.27;;
25581;SDS011;13462;50.764;4.332;2024-02-28T12:42:34;13.30;;;6.88;;
25581;SDS011;13462;50.764;4.332;2024-02-28T12:45:01;12.02;;;6.22;;
25581;SDS011;13462;50.764;4.332;2024-02-28T12:47:28;12.45;;;6.22;;
25581;SDS011;13462;50.764;4.332;2024-02-28T12:49:55;10.20;;;5.72;;
25581;SDS011;13462;50.764;4.332;2024-02-28T12:52:21;11.07;;;6.47;;
25581;SDS011;13462;50.764;4.332;2024-02-28T12:54:46;12.57;;;6.78;;
25581;SDS011;13462;50.764;4.332;2024-02-28T12:57:12;9.98;;;5.70;;
25581;SDS011;13462;50.764;4.332;2024-02-28T12:59:41;10.68;;;6.40;;
25581;SDS011;13462;50.764;4.332;2024-02-28T13:02:07;8.70;;;6.15;;
25581;SDS011;13462;50.764;4.332;2024-02-28T13:04:34;10.10;;;6.35;;
25581;SDS011;13462;50.764;4.332;2024-02-28T13:07:00;11.95;;;6.38;;
25581;SDS011;13462;50.764;4.332;2024-02-28T13:09:25;9.70;;;6.70;;
25581;SDS011;13462;50.764;4.332;2024-02-28T13:11:51;10.25;;;7.30;;
25581;SDS011;13462;50.764;4.332;2024-02-28T13:14:17;10.70;;;6.78;;
25581;SDS011;13462;50.764;4.332;2024-02-28T13:16:42;13.90;;;7.28;;
25581;SDS011;13462;50.764;4.332;2024-02-28T13:19:09;14.35;;;8.07;;
25581;SDS011;13462;50.764;4.332;2024-02-28T13:21:35;13.30;;;8.68;;
25581;SDS011;13462;50.764;4.332;2024-02-28T13:24:02;12.82;;;8.02;;
25581;SDS011;13462;50.764;4.332;2024-02-28T13:26:28;11.07;;;7.88;;
25581;SDS011;13462;50.764;4.332;2024-02-28T13:28:54;11.88;;;7.90;;
25581;SDS011;13462;50.764;4.332;2024-02-28T13:31:21;10.80;;;7.38;;
25581;SDS011;13462;50.764;4.332;2024-02-28T13:33:46;10.93;;;7.63;;
25581;SDS011;13462;50.764;4.332;2024-02-28T13:36:13;15.23;;;7.35;;
25581;SDS011;13462;50.764;4.332;2024-02-28T13:38:39;11.73;;;7.30;;
25581;SDS011;13462;50.764;4.332;2024-02-28T13:41:04;11.07;;;6.47;;
25581;SDS011;13462;50.764;4.332;2024-02-28T13:43:30;12.88;;;7.43;;
25581;SDS011;13462;50.764;4.332;2024-02-28T13:45:55;9.85;;;7.25;;
25581;SDS011;13462;50.764;4.332;2024-02-28T13:48:25;13.88;;;7.47;;
25581;SDS011;13462;50.764;4.332;2024-02-28T13:50:53;10.23;;;6.93;;
25581;SDS011;13462;50.764;4.332;2024-02-28T13:53:19;10.95;;;6.53;;
25581;SDS011;13462;50.764;4.332;2024-02-28T13:55:45;10.35;;;6.80;;
25581;SDS011;13462;50.764;4.332;2024-02-28T13:58:12;12.52;;;7.57;;
25581;SDS011;13462;50.764;4.332;2024-02-28T14:00:38;10.25;;;7.05;;
25581;SDS011;13462;50.764;4.332;2024-02-28T14:03:04;12.55;;;7.78;;
25581;SDS011;13462;50.764;4.332;2024-02-28T14:05:31;11.70;;;8.30;;
25581;SDS011;13462;50.764;4.332;2024-02-28T14:07:57;17.52;;;8.93;;
25581;SDS011;13462;50.764;4.332;2024-02-28T14:10:23;11.90;;;7.45;;
25581;SDS011;13462;50.764;4.332;2024-02-28T14:12:49;14.07;;;6.88;;
25581;SDS011;13462;50.764;4.332;2024-02-28T14:15:17;11.82;;;6.78;;
25581;SDS011;13462;50.764;4.332;2024-02-28T14:17:43;11.98;;;7.32;;